Time;durP1;ratioP1;P1;durP2;ratioP2;P2;SDS_P1;SDS_P2;PMS_P1;PMS_P2;Temp;Humidity;BMP_temperature;BMP_pressure;BME280_temperature;BME280_humidity;BME280_pressure;Samples;Min_cycle;Max_cycle;Signal;HPM_P1;HPM_P2
2022/06/12 00:01:49;;;;;;;;;;;;;;;17.12;64.78;97069.28;5093352;28;19958;-72
2022/06/12 00:04:15;;;;;;;;;;;;;;;17.10;64.65;97065.28;5095222;28;19955;-72
2022/06/12 00:06:42;;;;;;;;;;;;;;;17.07;65.29;97069.19;5093149;28;19967;-72
2022/06/12 00:09:08;;;;;;;;;;;;;;;17.04;65.30;97067.06;5076719;28;19958;-72
2022/06/12 00:11:34;;;;;;;;;;;;;;;17.02;65.14;97066.50;5092728;28;19978;-72
2022/06/12 00:14:03;;;;;;;;;;;;;;;16.98;64.84;97058.22;5094813;28;20404;-72
2022/06/12 00:16:31;;;;;;;;;;;;;;;16.97;64.80;97061.13;5092122;28;19966;-72
2022/06/12 00:18:58;;;;;;;;;;;;;;;16.96;65.18;97067.47;5094603;28;19955;-72
2022/06/12 00:21:24;;;;;;;;;;;;;;;16.93;64.94;97065.31;5092437;28;20012;-72
2022/06/12 00:23:52;;;;;;;;;;;;;;;16.91;64.87;97056.81;5094599;28;19957;-72
2022/06/12 00:26:22;;;;;;;;;;;;;;;16.89;64.96;97056.25;5093233;28;19967;-72
2022/06/12 00:28:54;;;;;;;;;;;;;;;16.86;65.21;97052.22;5094610;28;19954;-72
2022/06/12 00:31:20;;;;;;;;;;;;;;;16.83;64.86;97053.50;5089450;28;20461;-72
2022/06/12 00:33:46;;;;;;;;;;;;;;;16.80;65.21;97056.66;5092808;28;19959;-72
2022/06/12 00:36:12;;;;;;;;;;;;;;;16.79;65.36;97054.22;5094323;28;19966;-72
2022/06/12 00:38:39;;;;;;;;;;;;;;;16.76;65.82;97058.16;5093174;28;19957;-72
2022/06/12 00:41:05;;;;;;;;;;;;;;;16.74;65.71;97059.44;5092706;28;19965;-72
2022/06/12 00:43:31;;;;;;;;;;;;;;;16.69;65.84;97059.34;5094235;28;20446;-73
2022/06/12 00:45:59;;;;;;;;;;;;;;;16.65;66.09;97053.72;5093407;28;20429;-72
2022/06/12 00:48:27;;;;;;;;;;;;;;;16.60;66.20;97054.47;5094264;28;19963;-72
2022/06/12 00:51:15;;;;;;;;;;;;;;;16.56;66.11;97060.47;5092362;28;19956;-72
2022/06/12 00:53:47;;;;;;;;;;;;;;;16.51;66.35;97058.56;5072454;28;20082;-72
2022/06/12 00:56:18;;;;;;;;;;;;;;;16.49;67.11;97062.50;5092171;28;19959;-72
2022/06/12 00:58:47;;;;;;;;;;;;;;;16.44;67.10;97058.72;5080350;28;19957;-72
2022/06/12 01:01:25;;;;;;;;;;;;;;;16.42;66.31;97054.69;5090778;28;19967;-73
2022/06/12 01:06:55;;;;;;;;;;;;;;;16.34;66.64;97057.75;5055247;28;19968;-71
2022/06/12 01:09:24;;;;;;;;;;;;;;;16.30;66.81;97059.28;5089872;28;19965;-72
2022/06/12 01:11:53;;;;;;;;;;;;;;;16.27;67.06;97055.25;5091660;28;20331;-72
2022/06/12 01:14:22;;;;;;;;;;;;;;;16.23;66.84;97047.00;5092646;28;19949;-72
2022/06/12 01:16:48;;;;;;;;;;;;;;;16.21;66.78;97058.84;5092897;28;20370;-71
2022/06/12 01:19:20;;;;;;;;;;;;;;;16.18;67.10;97057.47;5093273;28;19963;-76
2022/06/12 01:22:06;;;;;;;;;;;;;;;16.14;67.50;97059.00;5092568;28;19962;-72
2022/06/12 01:25:00;;;;;;;;;;;;;;;16.11;67.88;97064.78;5086958;28;20336;-71
2022/06/12 01:27:45;;;;;;;;;;;;;;;16.06;67.88;97061.22;5093636;28;20412;-71
2022/06/12 01:30:14;;;;;;;;;;;;;;;16.02;67.34;97050.31;5074604;28;20395;-72
2022/06/12 01:33:09;;;;;;;;;;;;;;;15.98;67.44;97052.66;5080413;28;19977;-71
2022/06/12 01:35:42;;;;;;;;;;;;;;;15.96;67.35;97057.38;5091749;28;19957;-72
2022/06/12 01:38:16;;;;;;;;;;;;;;;15.93;66.90;97057.81;5093867;28;19956;-71
2022/06/12 01:40:41;;;;;;;;;;;;;;;15.92;66.99;97052.78;5090392;28;19972;-72
2022/06/12 01:43:19;;;;;;;;;;;;;;;15.89;67.59;97055.91;5093580;28;19948;-72
2022/06/12 01:46:04;;;;;;;;;;;;;;;15.84;68.47;97061.91;5092193;28;19969;-72
2022/06/12 01:48:38;;;;;;;;;;;;;;;15.79;68.72;97054.69;5093009;28;19983;-72
2022/06/12 01:51:06;;;;;;;;;;;;;;;15.75;68.77;97050.09;5091951;28;19955;-71
2022/06/12 01:53:35;;;;;;;;;;;;;;;15.71;68.33;97051.59;5092782;28;19977;-71
2022/06/12 01:56:20;;;;;;;;;;;;;;;15.68;68.20;97050.19;5092061;28;19956;-71
2022/06/12 01:58:53;;;;;;;;;;;;;;;15.64;68.60;97043.75;5092960;28;19956;-71
2022/06/12 02:01:22;;;;;;;;;;;;;;;15.60;68.92;97046.09;5091821;28;20002;-71
2022/06/12 02:04:04;;;;;;;;;;;;;;;15.55;69.11;97045.97;5093229;28;20327;-71
2022/06/12 02:06:38;;;;;;;;;;;;;;;15.52;68.96;97041.16;5074003;28;19964;-72
2022/06/12 02:09:14;;;;;;;;;;;;;;;15.48;69.34;97045.31;5092466;28;19964;-71
2022/06/12 02:14:33;;;;;;;;;;;;;;;15.43;69.98;97037.28;5095769;28;19980;-72
2022/06/12 02:17:01;;;;;;;;;;;;;;;15.40;70.40;97041.19;5097118;28;19958;-71
2022/06/12 02:19:31;;;;;;;;;;;;;;;15.37;70.21;97035.56;5095827;28;19969;-72
2022/06/12 02:22:17;;;;;;;;;;;;;;;15.34;70.39;97038.69;5085280;28;19959;-71
2022/06/12 02:24:50;;;;;;;;;;;;;;;15.30;70.11;97035.69;5095379;28;19959;-71
2022/06/12 02:27:18;;;;;;;;;;;;;;;15.27;70.38;97038.81;5096100;28;19962;-71
2022/06/12 02:29:46;;;;;;;;;;;;;;;15.22;70.94;97038.69;5095382;28;19961;-71
2022/06/12 02:32:30;;;;;;;;;;;;;;;15.20;70.89;97038.13;5093637;28;19982;-70
2022/06/12 02:34:58;;;;;;;;;;;;;;;15.17;70.92;97047.31;5087433;28;19959;-70
2022/06/12 02:37:27;;;;;;;;;;;;;;;15.13;71.30;97040.91;5095065;28;19952;-71
2022/06/12 02:39:57;;;;;;;;;;;;;;;15.09;70.95;97039.75;5096012;28;19965;-71
2022/06/12 02:42:38;;;;;;;;;;;;;;;15.06;71.07;97039.44;5095460;28;19951;-71
2022/06/12 02:45:14;;;;;;;;;;;;;;;15.04;71.29;97044.16;5096518;28;19968;-71
2022/06/12 02:47:41;;;;;;;;;;;;;;;15.00;71.80;97035.88;5095068;28;19953;-71
2022/06/12 02:50:08;;;;;;;;;;;;;;;14.97;71.66;97038.97;5096457;28;20026;-71
2022/06/12 02:52:39;;;;;;;;;;;;;;;14.92;71.54;97034.38;5094980;28;19965;-71
2022/06/12 02:55:05;;;;;;;;;;;;;;;14.90;71.96;97043.56;5096675;28;19967;-71
2022/06/12 02:57:53;;;;;;;;;;;;;;;14.85;71.86;97040.84;5095324;28;19949;-71
2022/06/12 03:00:30;;;;;;;;;;;;;;;14.82;72.14;97039.44;5078227;28;19993;-71
2022/06/12 03:03:10;;;;;;;;;;;;;;;14.77;72.86;97034.84;5094950;28;19964;-71
2022/06/12 03:05:37;;;;;;;;;;;;;;;14.74;72.45;97037.97;5096671;28;19950;-71
2022/06/12 03:08:06;;;;;;;;;;;;;;;14.73;72.31;97038.19;5092571;28;19960;-71
2022/06/12 03:10:37;;;;;;;;;;;;;;;14.71;71.59;97030.47;5095316;28;20412;-71
2022/06/12 03:13:05;;;;;;;;;;;;;;;14.70;71.13;97033.34;5094355;28;20350;-71
2022/06/12 03:15:39;;;;;;;;;;;;;;;14.70;71.48;97031.53;5094803;28;19969;-71
2022/06/12 03:18:08;;;;;;;;;;;;;;;14.70;72.12;97030.69;5092278;28;20323;-71
2022/06/12 03:20:43;;;;;;;;;;;;;;;14.68;72.44;97038.03;5096262;28;19960;-71
2022/06/12 03:23:21;;;;;;;;;;;;;;;14.66;72.77;97037.47;5076132;28;19955;-72
2022/06/12 03:25:51;;;;;;;;;;;;;;;14.62;72.38;97034.50;5094524;28;20402;-71
2022/06/12 03:28:31;;;;;;;;;;;;;;;14.58;72.37;97042.06;5094572;28;20021;-71
2022/06/12 03:31:17;;;;;;;;;;;;;;;14.57;72.38;97044.94;5093627;28;20348;-72
2022/06/12 03:34:09;;;;;;;;;;;;;;;14.54;72.33;97048.81;5087625;28;19975;-72
2022/06/12 03:36:41;;;;;;;;;;;;;;;14.51;72.63;97040.53;5091982;28;19958;-71
2022/06/12 03:39:19;;;;;;;;;;;;;;;14.48;72.65;97041.78;5094522;28;19970;-72
2022/06/12 03:41:50;;;;;;;;;;;;;;;14.47;72.70;97040.19;5093680;28;19960;-71
2022/06/12 03:44:27;;;;;;;;;;;;;;;14.46;73.10;97043.06;5095542;28;20419;-71
2022/06/12 03:47:06;;;;;;;;;;;;;;;14.45;72.55;97044.06;5092785;28;19982;-72
2022/06/12 03:49:35;;;;;;;;;;;;;;;14.44;72.99;97042.47;5092838;28;20431;-72
2022/06/12 03:52:00;;;;;;;;;;;;;;;14.43;72.38;97036.41;5094592;28;19972;-71
2022/06/12 03:54:30;;;;;;;;;;;;;;;14.44;72.51;97040.63;5094179;28;19979;-72
2022/06/12 04:00:06;;;;;;;;;;;;;;;14.48;71.95;97041.00;5084503;28;19959;-72
2022/06/12 04:02:33;;;;;;;;;;;;;;;14.51;72.69;97049.28;5092399;28;19957;-72
2022/06/12 04:05:01;;;;;;;;;;;;;;;14.53;72.21;97049.03;5095042;28;20273;-72
2022/06/12 04:07:28;;;;;;;;;;;;;;;14.55;72.63;97044.31;5092893;28;19948;-72
2022/06/12 04:09:56;;;;;;;;;;;;;;;14.58;72.98;97049.19;5094079;28;19954;-72
2022/06/12 04:12:25;;;;;;;;;;;;;;;14.62;72.86;97047.69;5093369;28;19974;-72
2022/06/12 04:15:04;;;;;;;;;;;;;;;14.67;72.77;97041.72;5094895;28;20324;-72
2022/06/12 04:17:30;;;;;;;;;;;;;;;14.74;72.28;97045.06;5091530;28;20400;-70
2022/06/12 04:20:05;;;;;;;;;;;;;;;14.82;72.43;97042.06;5094826;28;19959;-70
2022/06/12 04:22:40;;;;;;;;;;;;;;;14.90;72.02;97047.00;5092593;28;19951;-71
2022/06/12 04:25:17;;;;;;;;;;;;;;;14.98;72.16;97046.66;5093954;28;19963;-71
2022/06/12 04:27:45;;;;;;;;;;;;;;;15.06;71.74;97044.72;5086978;28;19955;-70
2022/06/12 04:30:34;;;;;;;;;;;;;;;15.15;71.47;97048.59;5094210;28;19988;-70
2022/06/12 04:33:06;;;;;;;;;;;;;;;15.24;71.84;97047.19;5094184;28;19986;-71
2022/06/12 04:35:40;;;;;;;;;;;;;;;15.33;71.32;97050.28;5083606;28;20024;-71
2022/06/12 04:38:07;;;;;;;;;;;;;;;15.44;71.29;97052.13;5093052;28;20187;-70
2022/06/12 04:40:33;;;;;;;;;;;;;;;15.53;71.34;97047.25;5093048;28;19971;-71
2022/06/12 04:42:59;;;;;;;;;;;;;;;15.67;71.81;97055.72;5094333;28;19961;-71
2022/06/12 04:45:25;;;;;;;;;;;;;;;15.75;70.93;97050.09;5093195;28;20415;-71
2022/06/12 04:47:51;;;;;;;;;;;;;;;15.87;70.91;97052.69;5093334;28;19986;-71
2022/06/12 04:50:17;;;;;;;;;;;;;;;15.98;70.11;97042.06;5093286;28;19954;-72
2022/06/12 04:52:43;;;;;;;;;;;;;;;16.06;69.82;97043.50;5094071;28;20056;-71
2022/06/12 04:55:09;;;;;;;;;;;;;;;16.13;69.67;97043.38;5092191;28;20447;-71
2022/06/12 04:57:35;;;;;;;;;;;;;;;16.20;69.38;97039.50;5092886;28;19990;-71
2022/06/12 05:00:00;;;;;;;;;;;;;;;16.33;68.88;97040.25;5093394;28;20461;-72
2022/06/12 05:02:30;;;;;;;;;;;;;;;16.40;68.82;97044.38;5052783;28;19956;-71
2022/06/12 05:04:56;;;;;;;;;;;;;;;16.47;68.51;97041.53;5085925;28;19984;-71
2022/06/12 05:07:22;;;;;;;;;;;;;;;16.56;68.37;97047.25;5093811;28;20408;-71
2022/06/12 05:09:48;;;;;;;;;;;;;;;16.67;68.33;97043.69;5093821;28;19955;-71
2022/06/12 05:12:14;;;;;;;;;;;;;;;16.85;68.02;97034.72;5091482;28;19990;-71
2022/06/12 05:14:40;;;;;;;;;;;;;;;17.01;67.68;97035.75;5092802;28;19965;-71
2022/06/12 05:17:10;;;;;;;;;;;;;;;17.18;67.05;97028.56;5092976;28;20327;-72
2022/06/12 05:19:37;;;;;;;;;;;;;;;17.44;66.80;97028.88;5090860;28;19972;-72
2022/06/12 05:22:03;;;;;;;;;;;;;;;17.64;66.27;97015.06;5084853;28;20038;-72
2022/06/12 05:24:30;;;;;;;;;;;;;;;17.84;65.77;97017.91;5091546;28;19957;-72
2022/06/12 05:26:57;;;;;;;;;;;;;;;18.01;65.28;97011.72;5093061;28;20332;-71
2022/06/12 05:29:25;;;;;;;;;;;;;;;18.26;65.56;97022.56;5092816;28;19960;-71
2022/06/12 05:31:51;;;;;;;;;;;;;;;18.49;63.83;96994.06;5093990;28;19992;-71
2022/06/12 05:34:17;;;;;;;;;;;;;;;18.70;64.19;97002.16;5092580;28;20000;-72
2022/06/12 05:36:44;;;;;;;;;;;;;;;18.98;63.41;96996.53;5080056;28;19959;-72
2022/06/12 05:39:10;;;;;;;;;;;;;;;19.26;62.91;96995.31;5093575;28;19952;-74
2022/06/12 05:41:36;;;;;;;;;;;;;;;19.48;61.96;96979.16;5075184;28;19964;-72
2022/06/12 05:44:02;;;;;;;;;;;;;;;19.69;61.23;96973.88;5092848;28;19956;-72
2022/06/12 05:46:27;;;;;;;;;;;;;;;19.77;60.59;96972.63;5091936;28;20046;-72
2022/06/12 05:48:53;;;;;;;;;;;;;;;19.83;60.71;96975.00;5097856;28;20017;-71
2022/06/12 05:51:20;;;;;;;;;;;;;;;19.90;60.08;96964.09;5096896;28;20004;-71
2022/06/12 05:53:46;;;;;;;;;;;;;;;19.98;60.19;96968.13;5097630;28;20357;-71
2022/06/12 05:56:13;;;;;;;;;;;;;;;20.07;60.08;96974.50;5096060;28;20437;-71
2022/06/12 05:58:40;;;;;;;;;;;;;;;20.15;60.13;96976.63;5097593;28;19956;-71
2022/06/12 06:01:07;;;;;;;;;;;;;;;20.24;59.77;96977.72;5093838;28;19969;-71
2022/06/12 06:03:33;;;;;;;;;;;;;;;20.37;59.69;96972.88;5096065;28;20272;-72
2022/06/12 06:06:00;;;;;;;;;;;;;;;20.52;59.44;96974.75;5096379;28;19964;-71
2022/06/12 06:08:26;;;;;;;;;;;;;;;20.76;59.58;96969.69;5092530;28;19971;-72
2022/06/12 06:10:52;;;;;;;;;;;;;;;20.98;59.24;96974.69;5096003;28;19959;-71
2022/06/12 06:13:18;;;;;;;;;;;;;;;21.22;58.08;96958.84;5096870;28;20322;-71
2022/06/12 06:15:45;;;;;;;;;;;;;;;21.24;56.85;96946.84;5095984;28;20426;-71
2022/06/12 06:18:11;;;;;;;;;;;;;;;21.25;57.53;96952.97;5095734;28;19961;-71
2022/06/12 06:20:38;;;;;;;;;;;;;;;21.41;57.70;96962.50;5093866;28;20007;-72
2022/06/12 06:23:05;;;;;;;;;;;;;;;21.44;56.37;96943.31;5095313;28;19954;-71
2022/06/12 06:25:31;;;;;;;;;;;;;;;21.48;57.48;96963.03;5096554;28;19960;-71
2022/06/12 06:27:57;;;;;;;;;;;;;;;21.55;57.09;96960.06;5094176;28;19965;-71
2022/06/12 06:30:24;;;;;;;;;;;;;;;21.69;56.70;96957.56;5095140;28;19972;-71
2022/06/12 06:32:50;;;;;;;;;;;;;;;21.76;55.82;96947.38;5094483;28;19975;-71
2022/06/12 06:35:16;;;;;;;;;;;;;;;21.88;55.42;96942.50;5095236;28;20444;-72
2022/06/12 06:37:42;;;;;;;;;;;;;;;21.79;55.18;96944.16;5094596;28;19961;-72
2022/06/12 06:40:08;;;;;;;;;;;;;;;21.93;56.62;96955.00;5084334;28;19961;-71
2022/06/12 06:42:35;;;;;;;;;;;;;;;22.02;54.16;96931.97;5093638;28;19957;-72
2022/06/12 06:47:45;;;;;;;;;;;;;;;22.01;55.08;96945.63;5095824;28;19962;-72
2022/06/12 06:50:13;;;;;;;;;;;;;;;22.23;54.40;96943.31;5093715;28;20410;-72
2022/06/12 06:52:39;;;;;;;;;;;;;;;22.41;53.49;96930.34;5094950;28;19967;-72
2022/06/12 06:55:06;;;;;;;;;;;;;;;22.38;54.53;96950.38;5095738;28;20011;-72
2022/06/12 06:57:35;;;;;;;;;;;;;;;22.43;53.93;96939.66;5060133;28;19956;-71
2022/06/12 07:00:02;;;;;;;;;;;;;;;22.41;53.20;96933.78;5092554;28;19961;-72
2022/06/12 07:02:28;;;;;;;;;;;;;;;22.41;53.26;96936.47;5075583;28;19970;-71
2022/06/12 07:04:54;;;;;;;;;;;;;;;22.56;53.18;96924.03;5094849;28;19963;-72
2022/06/12 07:07:46;;;;;;;;;;;;;;;22.94;53.40;96938.31;5071849;28;19965;-72
2022/06/12 07:10:15;;;;;;;;;;;;;;;23.15;52.12;96920.16;5092606;28;19965;-72
2022/06/12 07:12:41;;;;;;;;;;;;;;;23.19;52.72;96942.59;5094957;28;20322;-72
2022/06/12 07:15:07;;;;;;;;;;;;;;;23.34;51.42;96927.44;5095126;28;20425;-72
2022/06/12 07:17:33;;;;;;;;;;;;;;;23.46;51.14;96933.94;5093825;28;20415;-72
2022/06/12 07:19:59;;;;;;;;;;;;;;;23.62;51.39;96947.91;5093746;28;19954;-72
2022/06/12 07:22:25;;;;;;;;;;;;;;;23.76;50.51;96944.50;5089505;28;20056;-72
2022/06/12 07:24:51;;;;;;;;;;;;;;;23.90;50.67;96953.44;5093825;28;20415;-72
2022/06/12 07:27:16;;;;;;;;;;;;;;;23.99;49.60;96942.84;5094754;28;20421;-72
2022/06/12 07:29:42;;;;;;;;;;;;;;;23.95;51.46;96982.81;5094593;28;19960;-72
2022/06/12 07:32:08;;;;;;;;;;;;;;;24.06;50.23;96962.81;5094765;28;20401;-72
2022/06/12 07:34:35;;;;;;;;;;;;;;;24.19;49.92;96955.94;5093800;28;19984;-72
2022/06/12 07:37:00;;;;;;;;;;;;;;;24.30;48.95;96951.97;5092775;28;20329;-72
2022/06/12 07:39:29;;;;;;;;;;;;;;;24.33;49.98;96953.25;5093896;28;19964;-72
2022/06/12 07:41:55;;;;;;;;;;;;;;;24.33;47.97;96950.59;5094873;28;19986;-72
2022/06/12 07:44:23;;;;;;;;;;;;;;;24.47;49.53;96966.72;5091725;28;19958;-72
2022/06/12 07:46:50;;;;;;;;;;;;;;;24.74;49.01;96963.31;5093101;28;19964;-72
2022/06/12 07:49:16;;;;;;;;;;;;;;;25.04;48.58;96953.88;5093081;28;20423;-72
2022/06/12 07:51:42;;;;;;;;;;;;;;;25.28;48.55;96961.75;5094769;28;19971;-72
2022/06/12 07:54:08;;;;;;;;;;;;;;;25.31;46.81;96961.13;5093969;28;19987;-72
2022/06/12 07:56:34;;;;;;;;;;;;;;;25.27;45.15;96962.81;5092181;28;21939;-71
2022/06/12 07:59:00;;;;;;;;;;;;;;;25.20;45.95;96975.88;5093746;28;19964;-72
2022/06/12 08:01:27;;;;;;;;;;;;;;;25.31;46.02;96971.09;5094404;28;20429;-72
2022/06/12 08:03:54;;;;;;;;;;;;;;;25.51;46.44;96972.53;5086787;28;19965;-74
2022/06/12 08:06:20;;;;;;;;;;;;;;;25.69;46.03;96970.81;5093036;28;19965;-72
2022/06/12 08:08:46;;;;;;;;;;;;;;;25.79;45.48;96957.16;5093637;28;20438;-72
2022/06/12 08:11:12;;;;;;;;;;;;;;;25.81;45.74;96968.38;5089711;28;20057;-72
2022/06/12 08:13:39;;;;;;;;;;;;;;;25.90;44.20;96960.41;5093944;28;19970;-72
2022/06/12 08:16:05;;;;;;;;;;;;;;;25.93;45.02;96959.81;5093109;28;20331;-72
2022/06/12 08:18:31;;;;;;;;;;;;;;;25.99;44.02;96958.59;5092898;28;19957;-72
2022/06/12 08:20:59;;;;;;;;;;;;;;;26.08;45.32;96958.63;5092281;28;19972;-72
2022/06/12 08:23:33;;;;;;;;;;;;;;;26.25;45.19;96968.75;5092232;28;19951;-72
2022/06/12 08:26:01;;;;;;;;;;;;;;;26.38;43.72;96959.81;5088260;28;19970;-72
2022/06/12 08:28:28;;;;;;;;;;;;;;;26.51;44.13;96968.88;5091615;28;19959;-72
2022/06/12 08:31:23;;;;;;;;;;;;;;;26.52;43.95;96965.91;5058747;28;19981;-77
2022/06/12 08:33:51;;;;;;;;;;;;;;;26.62;45.26;96961.38;5060625;28;20380;-72
2022/06/12 08:36:18;;;;;;;;;;;;;;;26.68;42.89;96966.31;5058488;28;19963;-75
2022/06/12 08:38:44;;;;;;;;;;;;;;;26.67;43.32;96959.34;5054314;28;19968;-72
2022/06/12 08:41:18;;;;;;;;;;;;;;;26.69;42.10;96956.31;5051481;28;19969;-72
2022/06/12 08:43:55;;;;;;;;;;;;;;;26.73;41.63;96955.41;5052254;28;19964;-72
2022/06/12 08:46:27;;;;;;;;;;;;;;;26.59;40.77;96954.72;5058784;28;20410;-72
2022/06/12 08:49:05;;;;;;;;;;;;;;;26.58;42.32;96961.19;5057482;28;19967;-72
2022/06/12 08:51:39;;;;;;;;;;;;;;;26.70;42.15;96960.63;5035223;28;19957;-72
2022/06/12 08:54:12;;;;;;;;;;;;;;;26.85;43.80;96959.41;5060921;28;19972;-72
2022/06/12 08:56:41;;;;;;;;;;;;;;;26.90;42.61;96952.00;5046087;28;19957;-72
2022/06/12 08:59:14;;;;;;;;;;;;;;;26.93;42.06;96945.19;5046057;28;20523;-72
2022/06/12 09:01:43;;;;;;;;;;;;;;;26.83;41.37;96938.19;5050578;28;19969;-72
2022/06/12 09:04:44;;;;;;;;;;;;;;;26.69;41.42;96941.00;5059032;28;19956;-72
2022/06/12 09:07:17;;;;;;;;;;;;;;;26.69;42.12;96935.63;5062751;28;19958;-72
2022/06/12 09:09:58;;;;;;;;;;;;;;;26.88;42.84;96948.03;5050293;28;20433;-72
2022/06/12 09:12:29;;;;;;;;;;;;;;;26.91;41.17;96926.66;5054133;28;19968;-72
2022/06/12 09:15:01;;;;;;;;;;;;;;;27.02;40.58;96919.09;5061911;28;19982;-72
2022/06/12 09:17:35;;;;;;;;;;;;;;;27.09;37.69;96918.66;5061845;28;19964;-72
2022/06/12 09:20:01;;;;;;;;;;;;;;;27.13;37.81;96925.78;5054742;28;19959;-72
2022/06/12 09:22:45;;;;;;;;;;;;;;;27.18;38.47;96927.53;5079802;28;20045;-72
2022/06/12 09:25:26;;;;;;;;;;;;;;;27.32;39.41;96939.00;5088166;28;20307;-72
2022/06/12 09:28:24;;;;;;;;;;;;;;;27.53;38.84;96931.09;5073914;28;19970;-73
2022/06/12 09:30:55;;;;;;;;;;;;;;;27.66;38.16;96918.59;5089522;28;19980;-72
2022/06/12 09:33:30;;;;;;;;;;;;;;;27.79;37.68;96919.53;5088056;28;19969;-73
2022/06/12 09:36:11;;;;;;;;;;;;;;;27.65;37.58;96921.59;5091508;28;19962;-72
2022/06/12 09:38:37;;;;;;;;;;;;;;;27.68;39.76;96927.13;5092677;28;19961;-72
2022/06/12 09:41:12;;;;;;;;;;;;;;;27.82;38.73;96918.09;5092730;28;19957;-72
2022/06/12 09:43:45;;;;;;;;;;;;;;;27.87;38.25;96918.75;5091550;28;19954;-72
2022/06/12 09:46:26;;;;;;;;;;;;;;;27.84;37.61;96913.19;5092465;28;19976;-72
2022/06/12 09:48:52;;;;;;;;;;;;;;;27.69;37.21;96912.53;5092721;28;19962;-72
2022/06/12 09:51:22;;;;;;;;;;;;;;;27.63;35.40;96913.03;5091457;28;19997;-73
2022/06/12 09:53:55;;;;;;;;;;;;;;;27.66;36.75;96905.09;5081155;28;20332;-72
2022/06/12 09:56:26;;;;;;;;;;;;;;;27.79;36.02;96897.19;5092369;28;20305;-72
2022/06/12 09:59:10;;;;;;;;;;;;;;;27.80;37.26;96912.22;5092430;28;19963;-72
2022/06/12 10:01:39;;;;;;;;;;;;;;;27.90;36.78;96896.53;5073123;28;20185;-72
2022/06/12 10:04:16;;;;;;;;;;;;;;;27.87;34.64;96888.31;5092295;28;20302;-73
2022/06/12 10:06:46;;;;;;;;;;;;;;;27.86;35.30;96897.50;5091609;28;19958;-72
2022/06/12 10:09:15;;;;;;;;;;;;;;;27.90;33.34;96882.28;5092297;28;19959;-72
2022/06/12 10:11:46;;;;;;;;;;;;;;;28.04;36.20;96899.06;5081656;28;20324;-72
2022/06/12 10:14:24;;;;;;;;;;;;;;;28.26;35.32;96892.66;5092297;28;20450;-72
2022/06/12 10:17:13;;;;;;;;;;;;;;;28.53;35.68;96898.81;5090437;28;19970;-72
2022/06/12 10:19:41;;;;;;;;;;;;;;;28.69;34.74;96880.97;5091532;28;20014;-72
2022/06/12 10:22:16;;;;;;;;;;;;;;;28.86;32.66;96877.38;5091566;28;19963;-72
2022/06/12 10:24:43;;;;;;;;;;;;;;;28.97;34.96;96880.47;5083817;28;19962;-72
2022/06/12 10:27:11;;;;;;;;;;;;;;;29.11;34.16;96880.28;5092052;28;19974;-72
2022/06/12 10:29:43;;;;;;;;;;;;;;;29.21;34.91;96868.28;5091385;28;19979;-72
2022/06/12 10:32:14;;;;;;;;;;;;;;;29.34;34.46;96864.56;5092382;28;19992;-72
2022/06/12 10:34:40;;;;;;;;;;;;;;;29.44;34.09;96863.34;5094587;28;19974;-72
2022/06/12 10:37:09;;;;;;;;;;;;;;;29.54;31.73;96852.13;5095972;28;19968;-72
2022/06/12 10:39:35;;;;;;;;;;;;;;;29.62;31.33;96859.38;5095059;28;20051;-72
2022/06/12 10:42:04;;;;;;;;;;;;;;;29.60;29.77;96855.44;5095071;28;20480;-72
2022/06/12 10:44:44;;;;;;;;;;;;;;;29.50;32.63;96860.13;5079217;28;19967;-72
2022/06/12 10:47:21;;;;;;;;;;;;;;;29.51;31.91;96850.09;5095995;28;20342;-72
2022/06/12 10:49:49;;;;;;;;;;;;;;;29.36;31.97;96846.09;5091618;28;19965;-72
2022/06/12 10:52:18;;;;;;;;;;;;;;;29.12;30.44;96846.75;5094700;28;19957;-72
2022/06/12 10:54:45;;;;;;;;;;;;;;;28.93;31.74;96850.63;5095591;28;20324;-72
2022/06/12 10:57:30;;;;;;;;;;;;;;;29.07;33.50;96857.72;5094725;28;20318;-72
2022/06/12 11:00:09;;;;;;;;;;;;;;;29.33;32.74;96849.44;5095454;28;19964;-72
2022/06/12 11:02:48;;;;;;;;;;;;;;;29.60;33.05;96850.81;5094448;28;20445;-72
2022/06/12 11:05:35;;;;;;;;;;;;;;;29.72;32.69;96839.28;5095062;28;19966;-72
2022/06/12 11:08:22;;;;;;;;;;;;;;;29.91;32.09;96830.66;5092269;28;19972;-73
2022/06/12 11:10:53;;;;;;;;;;;;;;;29.85;29.27;96819.28;5095216;28;20017;-73
2022/06/12 11:13:19;;;;;;;;;;;;;;;29.81;31.13;96837.28;5094580;28;19962;-73
2022/06/12 11:16:00;;;;;;;;;;;;;;;29.55;28.77;96830.19;5094720;28;19962;-73
2022/06/12 11:18:26;;;;;;;;;;;;;;;29.54;31.32;96827.81;5076151;28;19966;-73
2022/06/12 11:21:11;;;;;;;;;;;;;;;29.58;30.27;96823.31;5095288;28;19957;-73
2022/06/12 11:24:02;;;;;;;;;;;;;;;29.71;32.71;96829.59;5092713;28;19963;-73
2022/06/12 11:26:52;;;;;;;;;;;;;;;29.89;32.53;96827.50;5086134;28;19965;-72
2022/06/12 11:29:37;;;;;;;;;;;;;;;29.98;31.04;96822.78;5091538;28;20435;-73
2022/06/12 11:32:21;;;;;;;;;;;;;;;29.92;31.71;96811.41;5087723;28;20010;-73
2022/06/12 11:34:56;;;;;;;;;;;;;;;30.07;33.19;96822.69;5095372;28;19987;-73
2022/06/12 11:37:41;;;;;;;;;;;;;;;30.38;32.90;96819.47;5094021;28;19959;-73
2022/06/12 11:40:17;;;;;;;;;;;;;;;30.78;31.76;96812.59;5084269;28;19960;-73
2022/06/12 11:42:43;;;;;;;;;;;;;;;31.09;31.83;96804.66;5093284;28;20455;-73
2022/06/12 11:45:09;;;;;;;;;;;;;;;31.32;30.84;96798.72;5093902;28;19964;-72
2022/06/12 11:47:54;;;;;;;;;;;;;;;31.57;30.51;96793.22;5093832;28;19956;-73
2022/06/12 11:50:32;;;;;;;;;;;;;;;31.78;31.04;96790.31;5094493;28;19967;-73
2022/06/12 11:53:16;;;;;;;;;;;;;;;31.91;30.44;96795.28;5094840;28;19966;-73
2022/06/12 11:56:04;;;;;;;;;;;;;;;32.06;29.57;96792.97;5075827;28;19975;-72
2022/06/12 11:58:31;;;;;;;;;;;;;;;32.09;29.73;96792.28;5094454;28;19966;-72
2022/06/12 12:01:10;;;;;;;;;;;;;;;32.12;29.70;96789.63;5076037;28;20336;-72
2022/06/12 12:03:42;;;;;;;;;;;;;;;31.95;29.12;96784.53;5093411;28;19959;-72
2022/06/12 12:06:23;;;;;;;;;;;;;;;31.53;31.04;96791.19;5092770;28;19963;-73
2022/06/12 12:09:02;;;;;;;;;;;;;;;31.14;30.71;96788.19;5082730;28;19962;-72
2022/06/12 12:11:32;;;;;;;;;;;;;;;30.89;30.19;96792.06;5075257;28;19982;-73
2022/06/12 12:14:00;;;;;;;;;;;;;;;30.68;31.41;96782.16;5094134;28;19987;-73
2022/06/12 12:17:03;;;;;;;;;;;;;;;30.51;32.95;96794.03;5093831;28;20030;-72
2022/06/12 12:19:40;;;;;;;;;;;;;;;30.37;32.93;96788.16;4990205;28;20449;-73
2022/06/12 12:22:09;;;;;;;;;;;;;;;30.26;32.01;96786.97;5082053;28;19958;-73
2022/06/12 12:24:40;;;;;;;;;;;;;;;30.19;32.63;96789.47;5094154;28;19985;-73
2022/06/12 12:27:11;;;;;;;;;;;;;;;30.17;31.78;96776.28;5093546;28;20459;-73
2022/06/12 12:29:37;;;;;;;;;;;;;;;29.96;32.43;96787.19;5092781;28;19969;-73
2022/06/12 12:32:05;;;;;;;;;;;;;;;29.73;32.23;96781.38;5091829;28;19987;-73
2022/06/12 12:34:32;;;;;;;;;;;;;;;29.35;32.64;96782.38;5093436;28;19976;-73
2022/06/12 12:42:30;;;;;;;;;;;;;;;28.79;34.89;96782.63;5093223;28;19960;-73
2022/06/12 12:45:08;;;;;;;;;;;;;;;29.00;35.27;96792.63;5092493;28;19984;-72
2022/06/12 12:47:34;;;;;;;;;;;;;;;29.29;34.88;96784.50;5092251;28;19963;-72
2022/06/12 12:50:02;;;;;;;;;;;;;;;29.47;34.99;96779.72;5087554;28;19962;-71
2022/06/12 12:52:38;;;;;;;;;;;;;;;29.39;34.05;96772.47;5089307;28;19965;-72
2022/06/12 12:55:05;;;;;;;;;;;;;;;29.45;34.84;96770.38;5088059;28;19978;-72
2022/06/12 12:57:36;;;;;;;;;;;;;;;29.52;34.85;96776.81;5089577;28;19959;-72
2022/06/12 13:00:04;;;;;;;;;;;;;;;29.59;34.54;96770.88;5085164;28;19965;-73
2022/06/12 13:02:54;;;;;;;;;;;;;;;29.47;34.31;96770.81;5090016;28;20062;-71
2022/06/12 13:05:22;;;;;;;;;;;;;;;29.37;34.85;96766.63;5090071;28;20345;-72
2022/06/12 13:07:51;;;;;;;;;;;;;;;29.27;34.56;96761.63;5092771;28;19956;-72
2022/06/12 13:10:27;;;;;;;;;;;;;;;29.24;33.99;96760.38;5093005;28;19966;-72
2022/06/12 13:13:28;;;;;;;;;;;;;;;29.44;34.83;96764.19;5058429;28;19968;-71
2022/06/12 13:15:58;;;;;;;;;;;;;;;29.48;34.82;96761.59;5087966;28;19974;-71
2022/06/12 13:18:44;;;;;;;;;;;;;;;29.41;35.63;96762.13;5087832;28;19981;-72
2022/06/12 13:21:10;;;;;;;;;;;;;;;29.43;35.27;96767.22;5089817;28;19967;-72
2022/06/12 13:23:56;;;;;;;;;;;;;;;29.44;34.25;96756.06;5089865;28;19976;-72
2022/06/12 13:26:24;;;;;;;;;;;;;;;29.60;34.41;96744.63;5074501;28;19970;-72
2022/06/12 13:28:58;;;;;;;;;;;;;;;29.82;34.09;96746.97;5090717;28;19967;-71